createdAt,value
2019-03-28T00:02:23.586Z,20.47
2019-03-28T00:07:24.323Z,20.47
2019-03-28T00:12:24.940Z,20.48
2019-03-28T00:17:25.542Z,20.47
2019-03-28T00:22:25.971Z,20.48
2019-03-28T00:27:26.444Z,20.47
2019-03-28T00:32:26.850Z,20.49
2019-03-28T00:37:27.326Z,20.51
2019-03-28T00:42:27.734Z,20.53
2019-03-28T00:47:28.179Z,20.53
2019-03-28T00:52:28.625Z,20.47
2019-03-28T00:57:29.075Z,20.47
2019-03-28T01:02:29.568Z,20.49
2019-03-28T01:07:30.167Z,20.47
2019-03-28T01:12:30.605Z,20.51
2019-03-28T01:17:31.265Z,20.50
2019-03-28T01:22:31.898Z,20.51
2019-03-28T01:27:32.547Z,20.48
2019-03-28T01:32:33.005Z,20.52
2019-03-28T01:37:33.683Z,20.50
2019-03-28T01:42:34.110Z,20.48
2019-03-28T01:47:34.577Z,20.47
2019-03-28T01:52:34.976Z,20.46
2019-03-28T01:57:35.401Z,20.57
2019-03-28T02:02:35.891Z,20.48
2019-03-28T02:07:36.338Z,20.47
2019-03-28T02:12:36.755Z,20.46
2019-03-28T02:17:37.747Z,20.44
2019-03-28T02:22:38.287Z,20.46
2019-03-28T02:27:38.836Z,20.47
2019-03-28T02:32:39.411Z,20.46
2019-03-28T02:37:40.009Z,20.46
2019-03-28T02:42:40.389Z,20.48
2019-03-28T02:47:40.867Z,20.44
2019-03-28T02:52:41.342Z,20.47
2019-03-28T02:57:43.696Z,20.46
2019-03-28T03:02:42.634Z,20.51
2019-03-28T03:07:43.111Z,20.45
2019-03-28T03:12:43.740Z,20.44
2019-03-28T03:17:44.220Z,20.46
2019-03-28T03:22:44.618Z,20.52
2019-03-28T03:27:57.849Z,20.44
2019-03-28T03:32:45.463Z,20.53
2019-03-28T03:37:45.932Z,20.53
2019-03-28T03:42:46.407Z,20.47
2019-03-28T03:47:46.811Z,20.60
2019-03-28T03:52:47.266Z,20.57
2019-03-28T03:57:47.727Z,20.57
2019-03-28T04:02:48.149Z,20.57
2019-03-28T04:07:48.589Z,20.59
2019-03-28T04:12:49.047Z,20.66
2019-03-28T04:17:49.552Z,20.66
2019-03-28T04:22:50.139Z,20.66
2019-03-28T04:27:50.611Z,20.67
2019-03-28T04:32:51.275Z,20.67
2019-03-28T04:37:52.071Z,20.73
2019-03-28T04:42:52.509Z,20.73
2019-03-28T04:47:53.155Z,20.73
2019-03-28T04:52:53.811Z,20.80
2019-03-28T04:57:54.281Z,20.81
2019-03-28T05:02:56.167Z,20.83
2019-03-28T05:07:56.811Z,20.87
2019-03-28T05:12:57.229Z,20.80
2019-03-28T05:17:58.059Z,19.88
2019-03-28T05:22:58.753Z,18.88
2019-03-28T05:27:59.417Z,18.78
2019-03-28T05:33:00.063Z,19.97
2019-03-28T05:38:00.470Z,20.22
2019-03-28T05:43:02.502Z,20.37
2019-03-28T05:48:01.304Z,20.43
2019-03-28T05:53:01.796Z,20.49
2019-03-28T05:58:02.478Z,20.52
2019-03-28T06:03:02.943Z,20.65
2019-03-28T06:08:03.340Z,20.65
2019-03-28T06:13:04.025Z,20.77
2019-03-28T06:18:04.633Z,20.72
2019-03-28T06:23:05.169Z,20.73
2019-03-28T06:28:05.621Z,20.89
2019-03-28T06:33:06.065Z,20.94
2019-03-28T06:38:06.713Z,20.97
2019-03-28T06:43:07.147Z,21.11
2019-03-28T06:48:07.601Z,21.14
2019-03-28T06:53:08.078Z,21.16
2019-03-28T06:58:08.722Z,21.17
2019-03-28T07:03:09.408Z,21.22
2019-03-28T07:08:09.992Z,21.19
2019-03-28T07:13:10.650Z,21.22
2019-03-28T07:18:11.228Z,21.26
2019-03-28T07:23:11.726Z,21.24
2019-03-28T07:28:12.217Z,21.30
2019-03-28T07:33:12.612Z,21.33
2019-03-28T07:38:13.140Z,21.27
2019-03-28T07:43:13.721Z,21.33
2019-03-28T07:48:14.182Z,21.31
2019-03-28T07:53:14.629Z,21.36
2019-03-28T07:58:15.033Z,21.47
2019-03-28T08:03:15.500Z,21.40
2019-03-28T08:08:15.935Z,21.40
2019-03-28T08:13:16.367Z,21.44
2019-03-28T08:18:16.815Z,21.45
2019-03-28T08:23:17.272Z,21.37
2019-03-28T08:28:17.695Z,21.44
2019-03-28T08:33:18.138Z,21.47
2019-03-28T08:38:18.563Z,21.42
2019-03-28T08:43:19.025Z,21.49
2019-03-28T08:48:19.682Z,21.49
2019-03-28T08:53:20.148Z,21.46
2019-03-28T08:58:20.789Z,21.51
2019-03-28T09:03:21.397Z,21.54
2019-03-28T09:08:22.104Z,21.52
2019-03-28T09:13:22.768Z,21.53
2019-03-28T09:18:23.173Z,21.53
2019-03-28T09:23:23.808Z,21.51
2019-03-28T09:28:24.693Z,21.52
2019-03-28T09:33:25.313Z,21.53
2019-03-28T09:38:25.791Z,21.50
2019-03-28T09:43:26.455Z,21.56
2019-03-28T09:48:27.103Z,21.55
2019-03-28T09:53:27.704Z,21.58
2019-03-28T09:58:28.348Z,21.58
2019-03-28T10:03:28.997Z,21.57
2019-03-28T10:08:29.488Z,21.62
2019-03-28T10:13:30.095Z,21.70
2019-03-28T10:18:30.752Z,21.69
2019-03-28T10:23:31.439Z,21.70
2019-03-28T10:28:31.866Z,21.70
2019-03-28T10:33:32.672Z,21.74
2019-03-28T10:38:33.125Z,21.76
2019-03-28T10:43:33.547Z,21.77
2019-03-28T10:48:34.054Z,21.70
2019-03-28T10:53:34.459Z,21.74
2019-03-28T10:58:35.264Z,21.79
2019-03-28T11:03:35.764Z,21.82
2019-03-28T11:08:36.504Z,21.80
2019-03-28T11:13:37.284Z,21.89
2019-03-28T11:18:37.909Z,21.85
2019-03-28T11:23:38.353Z,21.92
2019-03-28T11:28:38.817Z,21.96
2019-03-28T11:33:39.465Z,21.98
2019-03-28T11:38:39.867Z,21.93
2019-03-28T11:43:40.313Z,21.98
2019-03-28T11:48:40.797Z,21.96
2019-03-28T11:53:41.253Z,21.93
2019-03-28T11:58:41.689Z,21.96
2019-03-28T12:03:42.105Z,21.99
2019-03-28T12:08:42.582Z,21.94
2019-03-28T12:13:44.964Z,21.98
2019-03-28T12:18:43.843Z,21.99
2019-03-28T12:23:44.278Z,22.02
2019-03-28T12:28:44.912Z,21.98
2019-03-28T12:33:45.388Z,22.05
2019-03-28T12:38:45.812Z,22.00
2019-03-28T12:43:46.265Z,21.98
2019-03-28T12:48:46.712Z,22.06
2019-03-28T12:53:47.187Z,21.98
2019-03-28T12:58:48.584Z,21.97
2019-03-28T13:03:49.061Z,22.02
2019-03-28T13:08:49.547Z,22.07
2019-03-28T13:13:49.952Z,22.08
2019-03-28T13:18:50.391Z,22.03
2019-03-28T13:23:50.846Z,22.02
2019-03-28T13:28:51.294Z,21.39
2019-03-28T13:33:51.743Z,21.13
2019-03-28T13:38:52.198Z,21.21
2019-03-28T13:43:52.609Z,21.06
2019-03-28T13:48:53.065Z,21.01
2019-03-28T13:53:53.911Z,20.94
2019-03-28T13:58:54.568Z,21.03
2019-03-28T14:03:55.186Z,21.29
2019-03-28T14:08:55.849Z,21.39
2019-03-28T14:13:56.289Z,21.52
2019-03-28T14:18:56.763Z,21.48
2019-03-28T14:23:57.230Z,21.48
2019-03-28T14:28:57.827Z,21.65
2019-03-28T14:33:58.481Z,21.59
2019-03-28T14:38:58.909Z,21.52
2019-03-28T14:43:59.395Z,21.55
2019-03-28T14:48:59.962Z,21.47
2019-03-28T14:54:00.474Z,21.58
2019-03-28T14:59:00.886Z,21.49
2019-03-28T15:04:01.564Z,21.30
2019-03-28T15:09:02.163Z,21.45
2019-03-28T15:14:02.910Z,21.45
2019-03-28T15:19:03.654Z,21.61
2019-03-28T15:24:05.338Z,21.69
2019-03-28T15:29:06.063Z,21.67
2019-03-28T15:34:06.653Z,21.69
2019-03-28T15:39:07.115Z,21.82
2019-03-28T15:44:07.570Z,21.76
2019-03-28T15:49:08.219Z,21.77
2019-03-28T15:54:08.658Z,21.93
2019-03-28T15:59:09.094Z,21.81
2019-03-28T16:04:09.556Z,21.85
2019-03-28T16:09:10.422Z,21.76
2019-03-28T16:14:10.849Z,21.71
2019-03-28T16:19:11.392Z,21.68
2019-03-28T16:24:11.980Z,21.31
2019-03-28T16:29:12.457Z,21.59
2019-03-28T16:34:13.330Z,21.93
2019-03-28T16:39:13.813Z,22.05
2019-03-28T16:44:45.881Z,21.85
2019-03-28T16:49:46.409Z,21.88
2019-03-28T16:54:47.033Z,21.80
2019-03-28T16:59:47.653Z,21.69
2019-03-28T17:04:48.402Z,21.74
2019-03-28T17:09:48.960Z,21.74
2019-03-28T17:14:49.610Z,21.73
2019-03-28T17:19:50.223Z,21.70
2019-03-28T17:24:50.681Z,21.82
2019-03-28T17:29:51.337Z,21.91
2019-03-28T17:34:51.963Z,22.00
2019-03-28T17:39:52.578Z,21.95
2019-03-28T17:44:53.357Z,21.90
2019-03-28T17:49:54.074Z,21.98
2019-03-28T17:54:54.726Z,22.05
2019-03-28T17:59:55.360Z,22.11
2019-03-28T18:05:08.669Z,22.08
2019-03-28T18:09:56.617Z,21.87
2019-03-28T18:14:57.247Z,21.75
2019-03-28T18:19:57.880Z,21.79
2019-03-28T18:24:58.583Z,21.75
2019-03-28T18:29:59.255Z,21.78
2019-03-28T18:35:05.658Z,21.76
2019-03-28T18:40:03.721Z,21.81
2019-03-28T18:45:00.946Z,21.99
2019-03-28T18:50:03.331Z,21.79
2019-03-28T18:55:03.612Z,21.71
2019-03-28T19:00:04.179Z,21.68
2019-03-28T19:05:18.693Z,21.63
2019-03-28T19:10:05.638Z,21.58
2019-03-28T19:15:06.216Z,21.55
2019-03-28T19:20:07.091Z,21.81
2019-03-28T19:25:08.773Z,22.06
2019-03-28T19:30:09.599Z,22.16
2019-03-28T19:35:10.598Z,22.13
2019-03-28T19:40:11.102Z,22.21
2019-03-28T19:45:11.909Z,22.21
2019-03-28T19:50:12.600Z,22.28
2019-03-28T19:55:13.552Z,22.31
2019-03-28T20:00:14.095Z,22.33
2019-03-28T20:05:14.545Z,22.37
2019-03-28T20:10:16.566Z,22.38
2019-03-28T20:15:15.440Z,22.41
2019-03-28T20:20:16.055Z,22.45
2019-03-28T20:25:16.521Z,22.46
2019-03-28T20:30:17.123Z,22.47
2019-03-28T20:35:17.592Z,22.45
2019-03-28T20:40:18.216Z,22.51
2019-03-28T20:45:18.898Z,22.48
2019-03-28T20:50:19.525Z,22.19
2019-03-28T20:55:20.207Z,22.19
2019-03-28T21:00:21.021Z,22.17
2019-03-28T21:05:21.663Z,22.16
2019-03-28T21:10:22.164Z,22.18
2019-03-28T21:15:23.040Z,22.15
2019-03-28T21:20:23.806Z,22.21
2019-03-28T21:25:24.462Z,22.07
2019-03-28T21:30:27.094Z,22.05
2019-03-28T21:35:26.913Z,22.05
2019-03-28T21:40:27.745Z,22.00
2019-03-28T21:45:28.543Z,21.98
2019-03-28T21:50:29.133Z,21.95
2019-03-28T21:55:29.639Z,21.91
2019-03-28T22:00:30.337Z,21.84
2019-03-28T22:05:30.864Z,21.78
2019-03-28T22:10:31.645Z,21.80
2019-03-28T22:15:32.284Z,21.79
2019-03-28T22:20:32.931Z,21.73
2019-03-28T22:25:33.568Z,21.66
2019-03-28T22:30:34.242Z,21.62
2019-03-28T22:35:34.927Z,21.63
2019-03-28T22:40:35.551Z,21.59
2019-03-28T22:45:36.177Z,21.64
2019-03-28T22:50:36.679Z,21.59
2019-03-28T22:55:37.072Z,21.50
2019-03-28T23:00:37.570Z,21.48
2019-03-28T23:05:38.426Z,21.48
2019-03-28T23:10:39.251Z,21.44
2019-03-28T23:15:39.921Z,21.50
2019-03-28T23:20:40.521Z,21.38
2019-03-28T23:25:41.153Z,21.43
2019-03-28T23:30:41.609Z,21.37
2019-03-28T23:35:42.268Z,21.39
2019-03-28T23:40:43.075Z,21.37
2019-03-28T23:45:43.544Z,21.28
2019-03-28T23:50:44.004Z,21.35
2019-03-28T23:55:44.957Z,21.30
